Terminal Aerodrome Forecast
Issued by NWS Sterling, VA

Home | Current Version | Previous Version | Text Only | Print | Product List | Glossary On
Versions: 1 2 3 4 5 6 7 8 9 10 11 12 13 14 15 16 17 18 19 20
556
FTUS41 KLWX 221458 AAA
TAFDCA
TAF AMD
KDCA 221458Z 2215/2312 VRB04KT P6SM BKN050 OVC210
     FM221600 32005KT P6SM BKN050
     FM221800 25006KT P6SM VCTS BKN040CB
     FM230400 26004KT P6SM BKN070=

USA.gov is the U.S. government's official web portal to all federal, state and local government web resources and services.